sensor_id;sensor_type;location;lat;lon;timestamp;P1;durP1;ratioP1;P2;durP2;ratioP2
16314;SDS011;8266;52.150;4.768;2023-05-10T00:00:42;18.00;;;15.77;;
16314;SDS011;8266;52.150;4.768;2023-05-10T00:03:09;16.90;;;14.93;;
16314;SDS011;8266;52.150;4.768;2023-05-10T00:05:36;15.65;;;14.18;;
16314;SDS011;8266;52.150;4.768;2023-05-10T00:08:03;17.42;;;15.63;;
16314;SDS011;8266;52.150;4.768;2023-05-10T00:10:31;19.13;;;16.92;;
16314;SDS011;8266;52.150;4.768;2023-05-10T00:12:58;17.50;;;15.70;;
16314;SDS011;8266;52.150;4.768;2023-05-10T00:15:25;17.77;;;15.88;;
16314;SDS011;8266;52.150;4.768;2023-05-10T00:17:52;17.75;;;15.95;;
16314;SDS011;8266;52.150;4.768;2023-05-10T00:20:19;66.38;;;14.85;;
16314;SDS011;8266;52.150;4.768;2023-05-10T00:22:46;41.40;;;13.77;;
16314;SDS011;8266;52.150;4.768;2023-05-10T00:25:13;62.15;;;11.25;;
16314;SDS011;8266;52.150;4.768;2023-05-10T00:27:42;28.10;;;10.65;;
16314;SDS011;8266;52.150;4.768;2023-05-10T00:30:09;44.15;;;10.10;;
16314;SDS011;8266;52.150;4.768;2023-05-10T00:32:36;56.28;;;9.15;;
16314;SDS011;8266;52.150;4.768;2023-05-10T00:35:03;30.83;;;8.25;;
16314;SDS011;8266;52.150;4.768;2023-05-10T00:37:30;28.23;;;8.77;;
16314;SDS011;8266;52.150;4.768;2023-05-10T00:39:57;21.83;;;7.82;;
16314;SDS011;8266;52.150;4.768;2023-05-10T00:42:24;20.73;;;7.72;;
16314;SDS011;8266;52.150;4.768;2023-05-10T00:44:53;37.58;;;9.48;;
16314;SDS011;8266;52.150;4.768;2023-05-10T00:47:20;21.25;;;8.27;;
16314;SDS011;8266;52.150;4.768;2023-05-10T00:49:47;12.27;;;8.60;;
16314;SDS011;8266;52.150;4.768;2023-05-10T00:52:15;12.80;;;9.23;;
16314;SDS011;8266;52.150;4.768;2023-05-10T00:54:42;12.20;;;9.82;;
16314;SDS011;8266;52.150;4.768;2023-05-10T00:57:09;16.60;;;10.00;;
16314;SDS011;8266;52.150;4.768;2023-05-10T00:59:36;20.15;;;9.80;;
16314;SDS011;8266;52.150;4.768;2023-05-10T01:02:04;61.80;;;10.93;;
16314;SDS011;8266;52.150;4.768;2023-05-10T01:04:32;81.07;;;11.75;;
16314;SDS011;8266;52.150;4.768;2023-05-10T01:07:00;78.40;;;11.18;;
16314;SDS011;8266;52.150;4.768;2023-05-10T01:09:27;55.53;;;8.50;;
16314;SDS011;8266;52.150;4.768;2023-05-10T01:11:54;26.27;;;7.57;;
16314;SDS011;8266;52.150;4.768;2023-05-10T01:14:22;50.53;;;9.88;;
16314;SDS011;8266;52.150;4.768;2023-05-10T01:16:50;30.23;;;9.80;;
16314;SDS011;8266;52.150;4.768;2023-05-10T01:19:21;42.28;;;10.75;;
16314;SDS011;8266;52.150;4.768;2023-05-10T01:21:53;25.77;;;11.35;;
16314;SDS011;8266;52.150;4.768;2023-05-10T01:27:42;13.50;;;10.20;;
16314;SDS011;8266;52.150;4.768;2023-05-10T01:33:35;13.43;;;11.85;;
16314;SDS011;8266;52.150;4.768;2023-05-10T01:36:08;15.95;;;11.40;;
16314;SDS011;8266;52.150;4.768;2023-05-10T01:38:44;15.32;;;12.93;;
16314;SDS011;8266;52.150;4.768;2023-05-10T01:41:17;19.05;;;13.35;;
16314;SDS011;8266;52.150;4.768;2023-05-10T01:43:50;19.48;;;14.18;;
16314;SDS011;8266;52.150;4.768;2023-05-10T01:46:24;43.75;;;14.75;;
16314;SDS011;8266;52.150;4.768;2023-05-10T01:48:58;45.75;;;15.23;;
16314;SDS011;8266;52.150;4.768;2023-05-10T01:51:27;54.28;;;14.50;;
16314;SDS011;8266;52.150;4.768;2023-05-10T01:54:00;49.50;;;15.07;;
16314;SDS011;8266;52.150;4.768;2023-05-10T01:56:29;54.58;;;13.82;;
16314;SDS011;8266;52.150;4.768;2023-05-10T01:58:59;64.53;;;15.57;;
16314;SDS011;8266;52.150;4.768;2023-05-10T02:01:32;71.82;;;15.52;;
16314;SDS011;8266;52.150;4.768;2023-05-10T02:04:03;57.92;;;15.95;;
16314;SDS011;8266;52.150;4.768;2023-05-10T02:06:33;82.57;;;16.42;;
16314;SDS011;8266;52.150;4.768;2023-05-10T02:09:01;52.35;;;15.50;;
16314;SDS011;8266;52.150;4.768;2023-05-10T02:11:29;91.88;;;19.95;;
16314;SDS011;8266;52.150;4.768;2023-05-10T02:13:56;50.70;;;18.67;;
16314;SDS011;8266;52.150;4.768;2023-05-10T02:16:24;40.50;;;18.63;;
16314;SDS011;8266;52.150;4.768;2023-05-10T02:18:55;37.20;;;18.35;;
16314;SDS011;8266;52.150;4.768;2023-05-10T02:21:26;37.90;;;19.20;;
16314;SDS011;8266;52.150;4.768;2023-05-10T02:23:55;31.08;;;18.23;;
16314;SDS011;8266;52.150;4.768;2023-05-10T02:26:24;36.35;;;19.40;;
16314;SDS011;8266;52.150;4.768;2023-05-10T02:28:52;36.88;;;19.23;;
16314;SDS011;8266;52.150;4.768;2023-05-10T02:31:20;36.08;;;20.20;;
16314;SDS011;8266;52.150;4.768;2023-05-10T02:33:48;38.83;;;19.85;;
16314;SDS011;8266;52.150;4.768;2023-05-10T02:42:30;28.25;;;17.73;;
16314;SDS011;8266;52.150;4.768;2023-05-10T02:45:02;30.73;;;17.75;;
16314;SDS011;8266;52.150;4.768;2023-05-10T02:47:33;35.70;;;19.60;;
16314;SDS011;8266;52.150;4.768;2023-05-10T02:50:01;34.88;;;19.40;;
16314;SDS011;8266;52.150;4.768;2023-05-10T02:52:29;34.58;;;19.05;;
16314;SDS011;8266;52.150;4.768;2023-05-10T02:55:03;39.30;;;20.67;;
16314;SDS011;8266;52.150;4.768;2023-05-10T02:57:32;35.67;;;20.52;;
16314;SDS011;8266;52.150;4.768;2023-05-10T03:00:00;33.95;;;18.85;;
16314;SDS011;8266;52.150;4.768;2023-05-10T03:02:28;41.70;;;22.27;;
16314;SDS011;8266;52.150;4.768;2023-05-10T03:04:55;37.65;;;19.23;;
16314;SDS011;8266;52.150;4.768;2023-05-10T03:07:22;42.28;;;21.40;;
16314;SDS011;8266;52.150;4.768;2023-05-10T03:09:50;41.42;;;21.73;;
16314;SDS011;8266;52.150;4.768;2023-05-10T03:12:20;39.28;;;21.52;;
16314;SDS011;8266;52.150;4.768;2023-05-10T03:14:57;40.55;;;22.42;;
16314;SDS011;8266;52.150;4.768;2023-05-10T03:17:30;41.83;;;22.05;;
16314;SDS011;8266;52.150;4.768;2023-05-10T03:20:03;37.83;;;22.35;;
16314;SDS011;8266;52.150;4.768;2023-05-10T03:22:36;38.47;;;22.80;;
16314;SDS011;8266;52.150;4.768;2023-05-10T03:25:07;34.88;;;22.02;;
16314;SDS011;8266;52.150;4.768;2023-05-10T03:27:39;37.83;;;22.77;;
16314;SDS011;8266;52.150;4.768;2023-05-10T03:30:08;39.55;;;23.85;;
16314;SDS011;8266;52.150;4.768;2023-05-10T03:32:38;36.33;;;22.98;;
16314;SDS011;8266;52.150;4.768;2023-05-10T03:35:06;39.60;;;25.77;;
16314;SDS011;8266;52.150;4.768;2023-05-10T03:37:33;38.33;;;25.08;;
16314;SDS011;8266;52.150;4.768;2023-05-10T03:40:00;37.05;;;25.00;;
16314;SDS011;8266;52.150;4.768;2023-05-10T03:42:28;35.83;;;25.63;;
16314;SDS011;8266;52.150;4.768;2023-05-10T03:44:56;34.05;;;23.95;;
16314;SDS011;8266;52.150;4.768;2023-05-10T03:47:23;35.83;;;25.27;;
16314;SDS011;8266;52.150;4.768;2023-05-10T03:49:50;31.88;;;22.52;;
16314;SDS011;8266;52.150;4.768;2023-05-10T03:52:17;39.17;;;25.40;;
16314;SDS011;8266;52.150;4.768;2023-05-10T03:54:44;33.42;;;24.35;;
16314;SDS011;8266;52.150;4.768;2023-05-10T03:57:11;33.72;;;24.80;;
16314;SDS011;8266;52.150;4.768;2023-05-10T03:59:38;31.60;;;23.88;;
16314;SDS011;8266;52.150;4.768;2023-05-10T04:02:06;28.35;;;23.30;;
16314;SDS011;8266;52.150;4.768;2023-05-10T04:04:33;35.70;;;25.23;;
16314;SDS011;8266;52.150;4.768;2023-05-10T04:07:00;33.70;;;26.02;;
16314;SDS011;8266;52.150;4.768;2023-05-10T04:09:27;34.75;;;26.73;;
16314;SDS011;8266;52.150;4.768;2023-05-10T04:11:54;31.15;;;24.65;;
16314;SDS011;8266;52.150;4.768;2023-05-10T04:14:21;30.02;;;24.65;;
16314;SDS011;8266;52.150;4.768;2023-05-10T04:16:48;30.25;;;24.80;;
16314;SDS011;8266;52.150;4.768;2023-05-10T04:19:16;30.30;;;25.98;;
16314;SDS011;8266;52.150;4.768;2023-05-10T04:21:43;29.67;;;24.38;;
16314;SDS011;8266;52.150;4.768;2023-05-10T04:24:10;28.33;;;23.63;;
16314;SDS011;8266;52.150;4.768;2023-05-10T04:26:38;27.17;;;23.20;;
16314;SDS011;8266;52.150;4.768;2023-05-10T04:29:05;22.67;;;20.23;;
16314;SDS011;8266;52.150;4.768;2023-05-10T04:31:32;22.38;;;19.92;;
16314;SDS011;8266;52.150;4.768;2023-05-10T04:34:01;24.35;;;19.90;;
16314;SDS011;8266;52.150;4.768;2023-05-10T04:36:29;21.20;;;17.63;;
16314;SDS011;8266;52.150;4.768;2023-05-10T04:38:57;21.90;;;17.92;;
16314;SDS011;8266;52.150;4.768;2023-05-10T04:41:24;22.05;;;15.75;;
16314;SDS011;8266;52.150;4.768;2023-05-10T04:43:51;20.35;;;15.68;;
16314;SDS011;8266;52.150;4.768;2023-05-10T04:46:18;18.73;;;14.73;;
16314;SDS011;8266;52.150;4.768;2023-05-10T04:48:45;20.73;;;14.73;;
16314;SDS011;8266;52.150;4.768;2023-05-10T04:51:12;20.27;;;13.48;;
16314;SDS011;8266;52.150;4.768;2023-05-10T04:53:40;22.67;;;14.52;;
16314;SDS011;8266;52.150;4.768;2023-05-10T04:56:07;23.70;;;13.73;;
16314;SDS011;8266;52.150;4.768;2023-05-10T04:58:34;22.42;;;13.85;;
16314;SDS011;8266;52.150;4.768;2023-05-10T05:01:05;16.60;;;12.18;;
16314;SDS011;8266;52.150;4.768;2023-05-10T05:03:33;16.05;;;12.75;;
16314;SDS011;8266;52.150;4.768;2023-05-10T05:06:00;16.45;;;12.95;;
16314;SDS011;8266;52.150;4.768;2023-05-10T05:08:27;16.80;;;12.60;;
16314;SDS011;8266;52.150;4.768;2023-05-10T05:10:55;18.10;;;13.13;;
16314;SDS011;8266;52.150;4.768;2023-05-10T05:13:22;17.48;;;12.68;;
16314;SDS011;8266;52.150;4.768;2023-05-10T05:15:49;13.90;;;11.50;;
16314;SDS011;8266;52.150;4.768;2023-05-10T05:18:16;17.15;;;11.77;;
16314;SDS011;8266;52.150;4.768;2023-05-10T05:20:42;16.20;;;12.18;;
16314;SDS011;8266;52.150;4.768;2023-05-10T05:23:10;15.88;;;12.43;;
16314;SDS011;8266;52.150;4.768;2023-05-10T05:25:36;12.25;;;10.27;;
16314;SDS011;8266;52.150;4.768;2023-05-10T05:28:05;11.98;;;10.20;;
16314;SDS011;8266;52.150;4.768;2023-05-10T05:30:32;13.65;;;10.63;;
16314;SDS011;8266;52.150;4.768;2023-05-10T05:32:59;11.18;;;9.52;;
16314;SDS011;8266;52.150;4.768;2023-05-10T05:35:25;11.10;;;9.43;;
16314;SDS011;8266;52.150;4.768;2023-05-10T05:37:53;10.43;;;9.40;;
16314;SDS011;8266;52.150;4.768;2023-05-10T05:40:21;10.70;;;9.30;;
16314;SDS011;8266;52.150;4.768;2023-05-10T05:42:48;9.73;;;8.73;;
16314;SDS011;8266;52.150;4.768;2023-05-10T05:45:16;10.43;;;8.90;;
16314;SDS011;8266;52.150;4.768;2023-05-10T05:47:43;9.55;;;8.55;;
16314;SDS011;8266;52.150;4.768;2023-05-10T05:50:10;9.50;;;8.32;;
16314;SDS011;8266;52.150;4.768;2023-05-10T05:52:37;10.60;;;9.50;;
16314;SDS011;8266;52.150;4.768;2023-05-10T05:55:04;10.57;;;9.23;;
16314;SDS011;8266;52.150;4.768;2023-05-10T05:57:31;11.48;;;8.40;;
16314;SDS011;8266;52.150;4.768;2023-05-10T05:59:58;9.40;;;8.40;;
16314;SDS011;8266;52.150;4.768;2023-05-10T06:02:26;8.82;;;8.02;;
16314;SDS011;8266;52.150;4.768;2023-05-10T06:04:53;9.23;;;8.27;;
16314;SDS011;8266;52.150;4.768;2023-05-10T06:07:20;12.85;;;8.77;;
16314;SDS011;8266;52.150;4.768;2023-05-10T06:09:47;10.15;;;8.43;;
16314;SDS011;8266;52.150;4.768;2023-05-10T06:12:14;10.93;;;9.45;;
16314;SDS011;8266;52.150;4.768;2023-05-10T06:14:41;9.63;;;8.63;;
16314;SDS011;8266;52.150;4.768;2023-05-10T06:17:08;11.30;;;9.05;;
16314;SDS011;8266;52.150;4.768;2023-05-10T06:19:36;10.48;;;8.90;;
16314;SDS011;8266;52.150;4.768;2023-05-10T06:22:03;10.10;;;8.50;;
16314;SDS011;8266;52.150;4.768;2023-05-10T06:24:30;9.60;;;8.60;;
16314;SDS011;8266;52.150;4.768;2023-05-10T06:26:57;12.32;;;8.93;;
16314;SDS011;8266;52.150;4.768;2023-05-10T06:29:25;9.45;;;8.38;;
16314;SDS011;8266;52.150;4.768;2023-05-10T06:31:52;11.15;;;8.50;;
16314;SDS011;8266;52.150;4.768;2023-05-10T06:34:19;10.15;;;8.88;;
16314;SDS011;8266;52.150;4.768;2023-05-10T06:36:47;9.88;;;8.88;;
16314;SDS011;8266;52.150;4.768;2023-05-10T06:39:14;8.93;;;8.10;;
16314;SDS011;8266;52.150;4.768;2023-05-10T06:41:41;9.40;;;8.23;;
16314;SDS011;8266;52.150;4.768;2023-05-10T06:44:08;9.32;;;7.90;;
16314;SDS011;8266;52.150;4.768;2023-05-10T06:46:35;8.75;;;7.63;;
16314;SDS011;8266;52.150;4.768;2023-05-10T06:49:02;9.95;;;8.30;;
16314;SDS011;8266;52.150;4.768;2023-05-10T06:51:29;9.75;;;8.40;;
16314;SDS011;8266;52.150;4.768;2023-05-10T06:53:59;10.20;;;8.43;;
16314;SDS011;8266;52.150;4.768;2023-05-10T06:56:26;9.77;;;7.57;;
16314;SDS011;8266;52.150;4.768;2023-05-10T06:58:53;9.27;;;7.82;;
16314;SDS011;8266;52.150;4.768;2023-05-10T07:01:20;13.13;;;6.63;;
16314;SDS011;8266;52.150;4.768;2023-05-10T07:03:47;8.32;;;7.43;;
16314;SDS011;8266;52.150;4.768;2023-05-10T07:06:14;7.65;;;6.78;;
16314;SDS011;8266;52.150;4.768;2023-05-10T07:08:41;7.65;;;6.57;;
16314;SDS011;8266;52.150;4.768;2023-05-10T07:11:10;7.22;;;6.38;;
16314;SDS011;8266;52.150;4.768;2023-05-10T07:13:37;7.10;;;6.28;;
16314;SDS011;8266;52.150;4.768;2023-05-10T07:16:06;6.28;;;5.63;;
16314;SDS011;8266;52.150;4.768;2023-05-10T07:18:33;6.40;;;5.80;;
16314;SDS011;8266;52.150;4.768;2023-05-10T07:21:00;7.03;;;5.82;;
16314;SDS011;8266;52.150;4.768;2023-05-10T07:23:28;6.88;;;5.85;;
16314;SDS011;8266;52.150;4.768;2023-05-10T07:25:55;5.15;;;4.50;;
16314;SDS011;8266;52.150;4.768;2023-05-10T07:28:23;4.55;;;4.15;;
16314;SDS011;8266;52.150;4.768;2023-05-10T07:30:50;5.30;;;4.50;;
16314;SDS011;8266;52.150;4.768;2023-05-10T07:33:17;5.00;;;4.50;;
16314;SDS011;8266;52.150;4.768;2023-05-10T07:35:44;4.18;;;3.78;;
16314;SDS011;8266;52.150;4.768;2023-05-10T07:38:11;4.90;;;4.22;;
16314;SDS011;8266;52.150;4.768;2023-05-10T07:40:38;4.63;;;4.15;;
16314;SDS011;8266;52.150;4.768;2023-05-10T07:43:05;4.38;;;3.97;;
16314;SDS011;8266;52.150;4.768;2023-05-10T07:45:34;4.20;;;3.80;;
16314;SDS011;8266;52.150;4.768;2023-05-10T07:48:01;4.13;;;3.65;;
16314;SDS011;8266;52.150;4.768;2023-05-10T07:50:28;4.25;;;3.85;;
16314;SDS011;8266;52.150;4.768;2023-05-10T07:52:55;4.25;;;3.85;;
16314;SDS011;8266;52.150;4.768;2023-05-10T07:55:22;5.25;;;3.60;;
16314;SDS011;8266;52.150;4.768;2023-05-10T07:57:49;4.60;;;3.92;;
16314;SDS011;8266;52.150;4.768;2023-05-10T08:00:17;5.03;;;4.22;;
16314;SDS011;8266;52.150;4.768;2023-05-10T08:02:46;5.57;;;4.22;;
16314;SDS011;8266;52.150;4.768;2023-05-10T08:05:14;4.95;;;4.45;;
16314;SDS011;8266;52.150;4.768;2023-05-10T08:07:41;5.75;;;4.30;;
16314;SDS011;8266;52.150;4.768;2023-05-10T08:10:08;3.85;;;3.42;;
16314;SDS011;8266;52.150;4.768;2023-05-10T08:12:38;4.32;;;3.92;;
16314;SDS011;8266;52.150;4.768;2023-05-10T08:15:06;4.75;;;4.25;;
16314;SDS011;8266;52.150;4.768;2023-05-10T08:17:34;5.03;;;3.90;;
16314;SDS011;8266;52.150;4.768;2023-05-10T08:20:02;4.90;;;4.40;;
16314;SDS011;8266;52.150;4.768;2023-05-10T08:22:30;5.10;;;4.35;;
16314;SDS011;8266;52.150;4.768;2023-05-10T08:24:57;5.43;;;4.45;;
16314;SDS011;8266;52.150;4.768;2023-05-10T08:27:23;5.30;;;4.43;;
16314;SDS011;8266;52.150;4.768;2023-05-10T08:29:50;4.90;;;4.05;;
16314;SDS011;8266;52.150;4.768;2023-05-10T08:32:17;6.47;;;4.40;;
16314;SDS011;8266;52.150;4.768;2023-05-10T08:34:44;4.28;;;3.90;;
16314;SDS011;8266;52.150;4.768;2023-05-10T08:37:13;4.75;;;4.22;;
16314;SDS011;8266;52.150;4.768;2023-05-10T08:39:39;4.63;;;3.90;;
16314;SDS011;8266;52.150;4.768;2023-05-10T08:42:06;5.70;;;4.28;;
16314;SDS011;8266;52.150;4.768;2023-05-10T08:44:35;5.95;;;4.40;;
16314;SDS011;8266;52.150;4.768;2023-05-10T08:47:06;4.28;;;3.88;;
16314;SDS011;8266;52.150;4.768;2023-05-10T08:49:34;4.00;;;3.60;;
16314;SDS011;8266;52.150;4.768;2023-05-10T08:52:03;4.05;;;3.67;;
16314;SDS011;8266;52.150;4.768;2023-05-10T08:54:33;4.18;;;3.88;;
16314;SDS011;8266;52.150;4.768;2023-05-10T08:57:00;4.97;;;4.15;;
16314;SDS011;8266;52.150;4.768;2023-05-10T08:59:28;4.63;;;4.18;;
16314;SDS011;8266;52.150;4.768;2023-05-10T09:01:56;4.57;;;4.10;;
16314;SDS011;8266;52.150;4.768;2023-05-10T09:04:24;5.22;;;4.72;;
16314;SDS011;8266;52.150;4.768;2023-05-10T09:06:51;4.88;;;4.30;;
16314;SDS011;8266;52.150;4.768;2023-05-10T09:09:18;4.47;;;4.05;;
16314;SDS011;8266;52.150;4.768;2023-05-10T09:11:48;4.50;;;3.63;;
16314;SDS011;8266;52.150;4.768;2023-05-10T09:14:15;4.55;;;4.15;;
16314;SDS011;8266;52.150;4.768;2023-05-10T09:16:43;4.45;;;3.53;;
16314;SDS011;8266;52.150;4.768;2023-05-10T09:19:10;4.72;;;4.15;;
16314;SDS011;8266;52.150;4.768;2023-05-10T09:21:37;6.50;;;4.68;;
16314;SDS011;8266;52.150;4.768;2023-05-10T09:24:04;4.53;;;3.92;;
16314;SDS011;8266;52.150;4.768;2023-05-10T09:26:33;4.82;;;4.32;;
16314;SDS011;8266;52.150;4.768;2023-05-10T09:29:02;4.90;;;4.47;;
16314;SDS011;8266;52.150;4.768;2023-05-10T09:31:44;5.22;;;4.28;;
16314;SDS011;8266;52.150;4.768;2023-05-10T09:34:15;6.80;;;4.20;;
16314;SDS011;8266;52.150;4.768;2023-05-10T09:36:50;4.22;;;3.72;;
16314;SDS011;8266;52.150;4.768;2023-05-10T09:39:18;4.53;;;3.42;;
16314;SDS011;8266;52.150;4.768;2023-05-10T09:41:45;3.08;;;2.78;;
16314;SDS011;8266;52.150;4.768;2023-05-10T09:44:17;4.68;;;2.50;;
16314;SDS011;8266;52.150;4.768;2023-05-10T09:46:48;2.63;;;2.35;;
16314;SDS011;8266;52.150;4.768;2023-05-10T09:49:17;3.20;;;2.33;;
16314;SDS011;8266;52.150;4.768;2023-05-10T09:51:44;2.22;;;2.00;;
16314;SDS011;8266;52.150;4.768;2023-05-10T09:54:12;2.65;;;2.33;;
16314;SDS011;8266;52.150;4.768;2023-05-10T09:56:42;3.20;;;2.38;;
16314;SDS011;8266;52.150;4.768;2023-05-10T09:59:09;2.75;;;2.53;;
16314;SDS011;8266;52.150;4.768;2023-05-10T10:01:39;3.92;;;2.70;;
16314;SDS011;8266;52.150;4.768;2023-05-10T10:04:07;4.03;;;3.08;;
16314;SDS011;8266;52.150;4.768;2023-05-10T10:06:36;5.53;;;3.42;;
16314;SDS011;8266;52.150;4.768;2023-05-10T10:09:03;4.13;;;3.83;;
16314;SDS011;8266;52.150;4.768;2023-05-10T10:11:31;4.22;;;3.83;;
16314;SDS011;8266;52.150;4.768;2023-05-10T10:13:58;3.92;;;3.40;;
16314;SDS011;8266;52.150;4.768;2023-05-10T10:16:26;4.75;;;3.58;;
16314;SDS011;8266;52.150;4.768;2023-05-10T10:18:56;5.10;;;3.65;;
16314;SDS011;8266;52.150;4.768;2023-05-10T10:21:23;4.00;;;3.60;;
16314;SDS011;8266;52.150;4.768;2023-05-10T10:23:50;5.55;;;3.58;;
16314;SDS011;8266;52.150;4.768;2023-05-10T10:26:18;3.60;;;3.30;;
16314;SDS011;8266;52.150;4.768;2023-05-10T10:28:48;2.80;;;2.60;;
16314;SDS011;8266;52.150;4.768;2023-05-10T10:31:23;3.35;;;2.80;;
16314;SDS011;8266;52.150;4.768;2023-05-10T10:34:01;3.78;;;2.63;;
16314;SDS011;8266;52.150;4.768;2023-05-10T10:36:32;2.45;;;2.25;;
16314;SDS011;8266;52.150;4.768;2023-05-10T10:39:08;2.30;;;2.10;;
16314;SDS011;8266;52.150;4.768;2023-05-10T10:41:37;2.97;;;2.58;;
16314;SDS011;8266;52.150;4.768;2023-05-10T10:44:25;2.78;;;1.95;;
16314;SDS011;8266;52.150;4.768;2023-05-10T10:47:00;2.83;;;2.55;;
16314;SDS011;8266;52.150;4.768;2023-05-10T10:49:32;4.60;;;2.38;;
16314;SDS011;8266;52.150;4.768;2023-05-10T10:52:22;2.40;;;2.20;;
16314;SDS011;8266;52.150;4.768;2023-05-10T10:54:53;2.28;;;2.08;;
16314;SDS011;8266;52.150;4.768;2023-05-10T10:57:24;2.42;;;2.22;;
16314;SDS011;8266;52.150;4.768;2023-05-10T10:59:54;3.00;;;2.50;;
16314;SDS011;8266;52.150;4.768;2023-05-10T11:02:55;3.25;;;2.90;;
16314;SDS011;8266;52.150;4.768;2023-05-10T11:05:32;4.63;;;3.83;;
16314;SDS011;8266;52.150;4.768;2023-05-10T11:08:06;4.80;;;4.40;;
16314;SDS011;8266;52.150;4.768;2023-05-10T11:11:03;8.60;;;6.13;;
16314;SDS011;8266;52.150;4.768;2023-05-10T11:13:33;6.32;;;5.72;;
16314;SDS011;8266;52.150;4.768;2023-05-10T11:16:10;6.63;;;5.72;;
16314;SDS011;8266;52.150;4.768;2023-05-10T11:18:54;6.90;;;5.78;;
16314;SDS011;8266;52.150;4.768;2023-05-10T11:21:26;6.95;;;6.28;;
16314;SDS011;8266;52.150;4.768;2023-05-10T11:23:54;7.25;;;6.55;;
16314;SDS011;8266;52.150;4.768;2023-05-10T11:26:22;6.25;;;5.47;;
16314;SDS011;8266;52.150;4.768;2023-05-10T11:28:51;7.70;;;6.90;;
16314;SDS011;8266;52.150;4.768;2023-05-10T11:31:20;8.85;;;6.88;;
16314;SDS011;8266;52.150;4.768;2023-05-10T11:33:49;10.43;;;8.63;;
16314;SDS011;8266;52.150;4.768;2023-05-10T11:36:18;11.35;;;9.13;;
16314;SDS011;8266;52.150;4.768;2023-05-10T11:38:47;10.43;;;8.30;;
16314;SDS011;8266;52.150;4.768;2023-05-10T11:41:15;11.07;;;8.10;;
16314;SDS011;8266;52.150;4.768;2023-05-10T11:43:45;10.77;;;7.75;;
16314;SDS011;8266;52.150;4.768;2023-05-10T11:46:14;10.77;;;7.90;;
16314;SDS011;8266;52.150;4.768;2023-05-10T11:48:41;11.82;;;9.30;;
16314;SDS011;8266;52.150;4.768;2023-05-10T11:51:09;11.48;;;8.27;;
16314;SDS011;8266;52.150;4.768;2023-05-10T11:53:37;10.40;;;7.82;;
16314;SDS011;8266;52.150;4.768;2023-05-10T11:56:06;8.55;;;7.45;;
16314;SDS011;8266;52.150;4.768;2023-05-10T11:58:34;7.85;;;6.88;;
16314;SDS011;8266;52.150;4.768;2023-05-10T12:01:02;9.75;;;7.68;;
16314;SDS011;8266;52.150;4.768;2023-05-10T12:03:31;9.40;;;7.28;;
16314;SDS011;8266;52.150;4.768;2023-05-10T12:05:59;7.50;;;6.40;;
16314;SDS011;8266;52.150;4.768;2023-05-10T12:08:29;6.97;;;6.25;;
16314;SDS011;8266;52.150;4.768;2023-05-10T12:11:03;8.02;;;6.18;;
16314;SDS011;8266;52.150;4.768;2023-05-10T12:13:34;7.50;;;5.63;;
16314;SDS011;8266;52.150;4.768;2023-05-10T12:16:12;6.93;;;4.63;;
16314;SDS011;8266;52.150;4.768;2023-05-10T12:18:40;6.05;;;4.72;;
16314;SDS011;8266;52.150;4.768;2023-05-10T12:21:07;7.57;;;5.00;;
16314;SDS011;8266;52.150;4.768;2023-05-10T12:23:36;5.68;;;4.85;;
16314;SDS011;8266;52.150;4.768;2023-05-10T12:26:04;8.50;;;5.47;;
16314;SDS011;8266;52.150;4.768;2023-05-10T12:28:32;4.90;;;4.47;;
16314;SDS011;8266;52.150;4.768;2023-05-10T12:31:01;5.82;;;4.53;;
16314;SDS011;8266;52.150;4.768;2023-05-10T12:33:34;5.00;;;4.50;;
16314;SDS011;8266;52.150;4.768;2023-05-10T12:36:04;4.68;;;3.92;;
16314;SDS011;8266;52.150;4.768;2023-05-10T12:38:32;5.32;;;4.20;;
16314;SDS011;8266;52.150;4.768;2023-05-10T12:41:01;5.60;;;4.30;;
16314;SDS011;8266;52.150;4.768;2023-05-10T12:43:31;7.07;;;4.80;;
16314;SDS011;8266;52.150;4.768;2023-05-10T12:45:58;4.43;;;4.00;;
16314;SDS011;8266;52.150;4.768;2023-05-10T12:48:30;4.13;;;3.72;;
16314;SDS011;8266;52.150;4.768;2023-05-10T12:50:58;4.55;;;4.15;;
16314;SDS011;8266;52.150;4.768;2023-05-10T12:53:26;4.88;;;4.22;;
16314;SDS011;8266;52.150;4.768;2023-05-10T12:55:53;5.03;;;4.20;;
16314;SDS011;8266;52.150;4.768;2023-05-10T12:58:20;6.18;;;4.97;;
16314;SDS011;8266;52.150;4.768;2023-05-10T13:00:48;5.20;;;4.53;;
16314;SDS011;8266;52.150;4.768;2023-05-10T13:03:16;4.80;;;4.30;;
16314;SDS011;8266;52.150;4.768;2023-05-10T13:05:43;5.15;;;3.30;;
16314;SDS011;8266;52.150;4.768;2023-05-10T13:08:10;4.32;;;3.75;;
16314;SDS011;8266;52.150;4.768;2023-05-10T13:10:37;4.82;;;3.60;;
16314;SDS011;8266;52.150;4.768;2023-05-10T13:13:04;5.90;;;3.67;;
16314;SDS011;8266;52.150;4.768;2023-05-10T13:15:32;3.35;;;3.05;;
16314;SDS011;8266;52.150;4.768;2023-05-10T13:18:00;3.90;;;3.50;;
16314;SDS011;8266;52.150;4.768;2023-05-10T13:20:27;4.18;;;3.40;;
16314;SDS011;8266;52.150;4.768;2023-05-10T13:22:55;3.13;;;2.83;;
16314;SDS011;8266;52.150;4.768;2023-05-10T13:25:21;4.30;;;3.80;;
16314;SDS011;8266;52.150;4.768;2023-05-10T13:27:48;4.32;;;3.30;;
16314;SDS011;8266;52.150;4.768;2023-05-10T13:30:15;4.57;;;3.53;;
16314;SDS011;8266;52.150;4.768;2023-05-10T13:32:42;4.20;;;3.80;;
16314;SDS011;8266;52.150;4.768;2023-05-10T13:35:11;3.13;;;2.83;;
16314;SDS011;8266;52.150;4.768;2023-05-10T13:37:38;3.85;;;3.45;;
16314;SDS011;8266;52.150;4.768;2023-05-10T13:40:06;4.50;;;3.90;;
16314;SDS011;8266;52.150;4.768;2023-05-10T13:42:33;8.18;;;4.53;;
16314;SDS011;8266;52.150;4.768;2023-05-10T13:45:00;5.05;;;4.40;;
16314;SDS011;8266;52.150;4.768;2023-05-10T13:47:27;4.32;;;3.92;;
16314;SDS011;8266;52.150;4.768;2023-05-10T13:49:54;5.28;;;4.78;;
16314;SDS011;8266;52.150;4.768;2023-05-10T13:52:23;5.82;;;4.88;;
16314;SDS011;8266;52.150;4.768;2023-05-10T13:54:50;5.90;;;5.30;;
16314;SDS011;8266;52.150;4.768;2023-05-10T13:57:19;5.63;;;5.07;;
16314;SDS011;8266;52.150;4.768;2023-05-10T13:59:46;6.22;;;5.63;;
16314;SDS011;8266;52.150;4.768;2023-05-10T14:02:14;5.65;;;5.13;;
16314;SDS011;8266;52.150;4.768;2023-05-10T14:04:40;6.07;;;5.47;;
16314;SDS011;8266;52.150;4.768;2023-05-10T14:07:08;7.63;;;6.25;;
16314;SDS011;8266;52.150;4.768;2023-05-10T14:09:36;6.25;;;5.65;;
16314;SDS011;8266;52.150;4.768;2023-05-10T14:12:03;6.07;;;5.43;;
16314;SDS011;8266;52.150;4.768;2023-05-10T14:14:30;7.00;;;5.15;;
16314;SDS011;8266;52.150;4.768;2023-05-10T14:16:57;6.00;;;5.43;;
16314;SDS011;8266;52.150;4.768;2023-05-10T14:19:24;7.88;;;6.72;;
16314;SDS011;8266;52.150;4.768;2023-05-10T14:21:51;7.57;;;6.07;;
16314;SDS011;8266;52.150;4.768;2023-05-10T14:24:19;9.38;;;6.35;;
16314;SDS011;8266;52.150;4.768;2023-05-10T14:26:47;8.52;;;6.13;;
16314;SDS011;8266;52.150;4.768;2023-05-10T14:29:14;7.00;;;6.30;;
16314;SDS011;8266;52.150;4.768;2023-05-10T14:31:41;6.95;;;6.35;;
16314;SDS011;8266;52.150;4.768;2023-05-10T14:34:08;7.57;;;6.03;;
16314;SDS011;8266;52.150;4.768;2023-05-10T14:36:34;7.72;;;6.57;;
16314;SDS011;8266;52.150;4.768;2023-05-10T14:39:02;6.95;;;6.25;;
16314;SDS011;8266;52.150;4.768;2023-05-10T14:41:29;7.72;;;6.93;;
16314;SDS011;8266;52.150;4.768;2023-05-10T14:43:57;7.55;;;6.15;;
16314;SDS011;8266;52.150;4.768;2023-05-10T14:46:24;7.43;;;6.35;;
16314;SDS011;8266;52.150;4.768;2023-05-10T14:48:51;8.10;;;6.05;;
16314;SDS011;8266;52.150;4.768;2023-05-10T14:51:18;6.35;;;5.68;;
16314;SDS011;8266;52.150;4.768;2023-05-10T14:53:46;6.32;;;5.70;;
16314;SDS011;8266;52.150;4.768;2023-05-10T14:56:14;5.35;;;4.85;;
16314;SDS011;8266;52.150;4.768;2023-05-10T14:58:41;8.07;;;5.07;;
16314;SDS011;8266;52.150;4.768;2023-05-10T15:01:09;6.07;;;5.22;;
16314;SDS011;8266;52.150;4.768;2023-05-10T15:03:37;5.47;;;4.70;;
16314;SDS011;8266;52.150;4.768;2023-05-10T15:06:04;6.40;;;4.72;;
16314;SDS011;8266;52.150;4.768;2023-05-10T15:08:31;6.15;;;4.93;;
16314;SDS011;8266;52.150;4.768;2023-05-10T15:10:58;6.47;;;4.85;;